Time;durP1;ratioP1;P1;durP2;ratioP2;P2;SDS_P1;SDS_P2;PMS_P1;PMS_P2;Temp;Humidity;BMP_temperature;BMP_pressure;BME280_temperature;BME280_humidity;BME280_pressure;Samples;Min_cycle;Max_cycle;Signal;HPM_P1;HPM_P2
2022/12/24 00:02:20;;;;;;;6.10;5.50;;;;;;;;;;5135434;27;20513;-57
2022/12/24 00:04:45;;;;;;;7.05;6.35;;;;;;;;;;5114519;27;20141;-57
2022/12/24 00:07:12;;;;;;;7.30;6.57;;;;;;;;;;5138610;27;20138;-56
2022/12/24 00:09:38;;;;;;;9.02;7.28;;;;;;;;;;5134563;27;20046;-56
2022/12/24 00:12:04;;;;;;;8.07;6.45;;;;;;;;;;5138485;27;20047;-57
2022/12/24 00:14:30;;;;;;;5.93;5.38;;;;;;;;;;5138962;27;20050;-57
2022/12/24 00:16:56;;;;;;;5.53;4.88;;;;;;;;;;5138432;27;20039;-57
2022/12/24 00:19:22;;;;;;;4.70;4.30;;;;;;;;;;5140451;27;20493;-56
2022/12/24 00:21:48;;;;;;;5.95;5.22;;;;;;;;;;5137854;27;20043;-57
2022/12/24 00:24:14;;;;;;;6.43;5.75;;;;;;;;;;5139306;27;20035;-57
2022/12/24 00:26:40;;;;;;;5.20;4.70;;;;;;;;;;5138650;27;20053;-57
2022/12/24 00:29:06;;;;;;;6.38;5.53;;;;;;;;;;5140778;27;20031;-57
2022/12/24 00:31:32;;;;;;;5.00;4.43;;;;;;;;;;5139208;27;20045;-57
2022/12/24 00:33:58;;;;;;;5.78;5.10;;;;;;;;;;5137374;27;20070;-56
2022/12/24 00:36:24;;;;;;;4.85;4.07;;;;;;;;;;5140523;27;20082;-57
2022/12/24 00:38:50;;;;;;;4.65;4.25;;;;;;;;;;5138239;27;20043;-57
2022/12/24 00:41:27;;;;;;;4.80;4.28;;;;;;;;;;5138711;27;20603;-56
2022/12/24 00:44:00;;;;;;;4.53;3.85;;;;;;;;;;5138730;27;20056;-56
2022/12/24 00:46:27;;;;;;;3.83;3.47;;;;;;;;;;5136372;27;20607;-56
2022/12/24 00:48:53;;;;;;;3.28;2.97;;;;;;;;;;5134111;27;20035;-57
2022/12/24 00:51:20;;;;;;;3.83;3.42;;;;;;;;;;5132770;27;20374;-57
2022/12/24 00:53:46;;;;;;;3.70;3.40;;;;;;;;;;5133333;27;20047;-56
2022/12/24 00:56:12;;;;;;;5.57;3.90;;;;;;;;;;5132444;27;20118;-57
2022/12/24 00:58:38;;;;;;;5.20;4.43;;;;;;;;;;5137093;27;20286;-57
2022/12/24 01:01:05;;;;;;;6.75;5.32;;;;;;;;;;5118710;27;20571;-57
2022/12/24 01:03:37;;;;;;;5.30;4.18;;;;;;;;;;5131186;27;20389;-56
2022/12/24 01:06:08;;;;;;;4.32;3.50;;;;;;;;;;5139933;27;20501;-57
2022/12/24 01:08:34;;;;;;;4.47;4.07;;;;;;;;;;5138686;27;20039;-57
2022/12/24 01:11:00;;;;;;;4.68;3.80;;;;;;;;;;5134912;27;20119;-57
2022/12/24 01:13:26;;;;;;;3.67;3.10;;;;;;;;;;5131999;27;20051;-57
2022/12/24 01:15:52;;;;;;;3.78;3.47;;;;;;;;;;5134300;27;20126;-57
2022/12/24 01:18:18;;;;;;;3.35;2.85;;;;;;;;;;5133113;27;20050;-57
2022/12/24 01:20:45;;;;;;;3.08;2.78;;;;;;;;;;5136483;27;20047;-57
2022/12/24 01:23:11;;;;;;;3.47;2.90;;;;;;;;;;5136863;27;20038;-56
2022/12/24 01:25:40;;;;;;;2.90;2.53;;;;;;;;;;5136497;27;20506;-56
2022/12/24 01:28:06;;;;;;;3.72;3.17;;;;;;;;;;5138635;27;20397;-57
2022/12/24 01:30:32;;;;;;;3.15;2.85;;;;;;;;;;5136515;27;20104;-57
2022/12/24 01:32:58;;;;;;;3.55;3.08;;;;;;;;;;5141521;27;20485;-57
2022/12/24 01:35:24;;;;;;;3.15;2.85;;;;;;;;;;5139741;27;20039;-57
2022/12/24 01:37:50;;;;;;;3.05;2.75;;;;;;;;;;5140687;27;20097;-57
2022/12/24 01:46:04;;;;;;;4.63;4.22;;;;;;;;;;5141067;27;20047;-57
2022/12/24 01:48:44;;;;;;;3.90;3.33;;;;;;;;;;5139832;27;20136;-57
2022/12/24 01:51:13;;;;;;;3.35;3.05;;;;;;;;;;5138470;27;20038;-57
2022/12/24 01:53:40;;;;;;;3.00;2.75;;;;;;;;;;5136067;27;20049;-57
2022/12/24 01:56:09;;;;;;;3.40;3.10;;;;;;;;;;5138160;27;20088;-57
2022/12/24 01:58:35;;;;;;;3.55;3.10;;;;;;;;;;5135029;27;20047;-56
2022/12/24 02:01:01;;;;;;;3.72;3.42;;;;;;;;;;5120302;27;20091;-57
2022/12/24 02:03:27;;;;;;;3.72;3.42;;;;;;;;;;5135137;27;20065;-57
2022/12/24 02:05:55;;;;;;;3.97;3.55;;;;;;;;;;5136524;27;20031;-57
2022/12/24 02:08:21;;;;;;;3.20;2.88;;;;;;;;;;5135438;27;20114;-56
2022/12/24 02:10:47;;;;;;;3.20;2.90;;;;;;;;;;5136280;27;20427;-57
2022/12/24 02:13:15;;;;;;;3.47;2.95;;;;;;;;;;5135596;27;20456;-57
2022/12/24 02:15:59;;;;;;;3.88;3.38;;;;;;;;;;5135520;27;20104;-57
2022/12/24 02:18:34;;;;;;;4.90;4.28;;;;;;;;;;5136779;27;20039;-57
2022/12/24 02:21:19;;;;;;;4.13;3.72;;;;;;;;;;5141120;27;20045;-57
2022/12/24 02:23:48;;;;;;;4.57;3.83;;;;;;;;;;5141021;27;20050;-57
2022/12/24 02:26:32;;;;;;;4.40;3.80;;;;;;;;;;5140894;27;20039;-57
2022/12/24 02:29:17;;;;;;;4.90;4.43;;;;;;;;;;5137981;27;20055;-57
2022/12/24 02:31:57;;;;;;;4.10;3.72;;;;;;;;;;5139028;27;20545;-57
2022/12/24 02:34:26;;;;;;;4.03;3.70;;;;;;;;;;5137430;27;20043;-57
2022/12/24 02:37:06;;;;;;;4.15;3.53;;;;;;;;;;5135874;27;20039;-56
2022/12/24 02:39:42;;;;;;;5.70;4.72;;;;;;;;;;5138540;27;20054;-57
2022/12/24 02:42:11;;;;;;;4.20;3.70;;;;;;;;;;5142163;27;20054;-57
2022/12/24 02:44:46;;;;;;;5.55;4.43;;;;;;;;;;5141417;27;20126;-57
2022/12/24 02:47:14;;;;;;;4.78;4.32;;;;;;;;;;5137947;27;20041;-57
2022/12/24 02:49:42;;;;;;;4.72;4.30;;;;;;;;;;5133531;27;20042;-57
2022/12/24 02:52:26;;;;;;;4.15;3.75;;;;;;;;;;5136619;27;20038;-56
2022/12/24 02:54:52;;;;;;;4.82;4.32;;;;;;;;;;5135039;27;20057;-57
2022/12/24 02:57:27;;;;;;;5.28;3.80;;;;;;;;;;5134792;27;20497;-56
2022/12/24 02:59:59;;;;;;;4.60;4.10;;;;;;;;;;5140116;27;20114;-57
2022/12/24 03:02:31;;;;;;;4.25;3.85;;;;;;;;;;5137324;27;20057;-56
2022/12/24 03:05:12;;;;;;;3.70;3.40;;;;;;;;;;5136335;27;20570;-57
2022/12/24 03:07:44;;;;;;;2.90;2.67;;;;;;;;;;5139179;27;20118;-57
2022/12/24 03:10:16;;;;;;;4.20;3.80;;;;;;;;;;5136876;27;20046;-57
2022/12/24 03:13:05;;;;;;;6.10;5.15;;;;;;;;;;5134221;27;20134;-57
2022/12/24 03:15:32;;;;;;;8.68;7.18;;;;;;;;;;5122121;27;20126;-57
2022/12/24 03:18:00;;;;;;;11.20;8.82;;;;;;;;;;5136358;27;20111;-57
2022/12/24 03:20:30;;;;;;;9.18;8.15;;;;;;;;;;5138010;27;20030;-57
2022/12/24 03:22:57;;;;;;;9.98;8.55;;;;;;;;;;5138699;27;20595;-57
2022/12/24 03:25:24;;;;;;;9.15;7.97;;;;;;;;;;5141230;27;20043;-56
2022/12/24 03:27:50;;;;;;;7.90;7.10;;;;;;;;;;5139688;27;20042;-56
2022/12/24 03:30:17;;;;;;;8.20;7.22;;;;;;;;;;5140028;27;20537;-57
2022/12/24 03:32:43;;;;;;;8.93;7.07;;;;;;;;;;5140276;27;20047;-56
2022/12/24 03:35:10;;;;;;;7.38;5.90;;;;;;;;;;5137787;27;20031;-57
2022/12/24 03:37:36;;;;;;;7.63;6.18;;;;;;;;;;5133482;27;20050;-57
2022/12/24 03:40:03;;;;;;;6.63;5.55;;;;;;;;;;5135893;27;20770;-57
2022/12/24 03:42:29;;;;;;;5.93;5.13;;;;;;;;;;5134537;27;20062;-56
2022/12/24 03:44:55;;;;;;;7.55;6.75;;;;;;;;;;5135264;27;20034;-57
2022/12/24 03:47:21;;;;;;;6.10;5.50;;;;;;;;;;5133611;27;20042;-57
2022/12/24 03:49:47;;;;;;;9.73;6.32;;;;;;;;;;5133921;27;20066;-56
2022/12/24 03:52:13;;;;;;;7.88;6.35;;;;;;;;;;5134028;27;20141;-57
2022/12/24 03:54:39;;;;;;;7.82;6.10;;;;;;;;;;5133813;27;20131;-56
2022/12/24 03:57:05;;;;;;;9.77;6.80;;;;;;;;;;5135766;27;20633;-57
2022/12/24 03:59:31;;;;;;;8.32;6.85;;;;;;;;;;5131597;27;20043;-57
2022/12/24 04:01:57;;;;;;;9.10;6.25;;;;;;;;;;5138853;27;20045;-57
2022/12/24 04:04:23;;;;;;;9.75;6.80;;;;;;;;;;5140631;27;20043;-56
2022/12/24 04:06:49;;;;;;;8.63;6.10;;;;;;;;;;5116183;27;20050;-57
2022/12/24 04:09:15;;;;;;;6.45;4.80;;;;;;;;;;5133899;27;20493;-57
2022/12/24 04:11:41;;;;;;;9.13;5.65;;;;;;;;;;5132944;27;20557;-57
2022/12/24 04:14:07;;;;;;;8.40;5.65;;;;;;;;;;5134740;27;20130;-57
2022/12/24 04:16:33;;;;;;;8.63;5.20;;;;;;;;;;5132491;27;20039;-56
2022/12/24 04:18:59;;;;;;;8.52;5.30;;;;;;;;;;5134642;27;20043;-57
2022/12/24 04:21:25;;;;;;;11.63;5.97;;;;;;;;;;5136139;27;20497;-56
2022/12/24 04:23:51;;;;;;;9.82;5.68;;;;;;;;;;5134232;27;20917;-56
2022/12/24 04:26:17;;;;;;;8.63;4.72;;;;;;;;;;5132778;27;20042;-57
2022/12/24 04:28:43;;;;;;;9.40;5.68;;;;;;;;;;5132746;27;20392;-56
2022/12/24 04:31:13;;;;;;;8.00;4.88;;;;;;;;;;5134779;27;20039;-57
2022/12/24 04:33:39;;;;;;;13.55;5.88;;;;;;;;;;5136697;27;20508;-57
2022/12/24 04:36:06;;;;;;;14.00;5.85;;;;;;;;;;5137801;27;20043;-56
2022/12/24 04:38:33;;;;;;;10.45;4.80;;;;;;;;;;5131944;27;20522;-57
2022/12/24 04:41:00;;;;;;;9.63;4.38;;;;;;;;;;5133826;27;20043;-56
2022/12/24 04:43:26;;;;;;;13.32;4.90;;;;;;;;;;5132187;27;20047;-56
2022/12/24 04:45:52;;;;;;;18.70;5.07;;;;;;;;;;5133728;27;20385;-56
2022/12/24 04:48:18;;;;;;;20.73;5.47;;;;;;;;;;5132774;27;20041;-57
2022/12/24 04:50:44;;;;;;;15.82;4.78;;;;;;;;;;5132563;27;20047;-57
2022/12/24 04:53:13;;;;;;;13.23;4.03;;;;;;;;;;5138055;27;20799;-56
2022/12/24 04:55:43;;;;;;;21.15;5.32;;;;;;;;;;5142802;27;20054;-56
2022/12/24 04:58:09;;;;;;;20.02;4.57;;;;;;;;;;5142572;27;20039;-57
2022/12/24 05:00:35;;;;;;;10.88;3.05;;;;;;;;;;5144169;27;20057;-57
2022/12/24 05:03:01;;;;;;;18.02;3.78;;;;;;;;;;5141407;27;20474;-56
2022/12/24 05:05:27;;;;;;;15.07;4.32;;;;;;;;;;5144062;27;20116;-56
2022/12/24 05:07:53;;;;;;;13.25;3.53;;;;;;;;;;5141973;27;20483;-56
2022/12/24 05:10:19;;;;;;;14.05;2.80;;;;;;;;;;5142327;27;20122;-57
2022/12/24 05:12:45;;;;;;;17.92;4.22;;;;;;;;;;5142823;27;20050;-57
2022/12/24 05:15:11;;;;;;;19.30;4.13;;;;;;;;;;5141143;27;20146;-57
2022/12/24 05:17:37;;;;;;;17.33;3.85;;;;;;;;;;5143325;27;20047;-57
2022/12/24 05:20:03;;;;;;;16.27;4.65;;;;;;;;;;5141730;27;20045;-57
2022/12/24 05:27:58;;;;;;;14.27;3.72;;;;;;;;;;5137761;27;20043;-57
2022/12/24 05:30:24;;;;;;;13.38;2.85;;;;;;;;;;5135438;27;20522;-57
2022/12/24 05:32:50;;;;;;;11.75;3.83;;;;;;;;;;5136974;27;20054;-57
2022/12/24 05:35:16;;;;;;;15.52;3.55;;;;;;;;;;5137237;27;20441;-57
2022/12/24 05:37:42;;;;;;;16.02;3.42;;;;;;;;;;5135618;27;20040;-57
2022/12/24 05:40:09;;;;;;;24.92;4.95;;;;;;;;;;5138357;27;20069;-57
2022/12/24 05:42:35;;;;;;;25.73;4.78;;;;;;;;;;5135527;27;20082;-56
2022/12/24 05:45:01;;;;;;;26.80;5.15;;;;;;;;;;5137350;27;20119;-56
2022/12/24 05:47:27;;;;;;;18.58;4.75;;;;;;;;;;5142528;27;20070;-56
2022/12/24 05:49:53;;;;;;;27.67;5.80;;;;;;;;;;5141450;27;20160;-57
2022/12/24 05:52:19;;;;;;;16.60;4.35;;;;;;;;;;5138207;27;20050;-56
2022/12/24 05:54:45;;;;;;;21.15;4.78;;;;;;;;;;5141741;27;20046;-56
2022/12/24 05:57:11;;;;;;;19.38;5.10;;;;;;;;;;5141083;27;20039;-57
2022/12/24 05:59:37;;;;;;;21.08;4.90;;;;;;;;;;5142134;27;20070;-56
2022/12/24 06:02:03;;;;;;;20.05;4.38;;;;;;;;;;5140918;27;20150;-56
2022/12/24 06:04:29;;;;;;;20.40;5.57;;;;;;;;;;5142040;27;20082;-57
2022/12/24 06:06:55;;;;;;;21.17;4.55;;;;;;;;;;5140786;27;20078;-57
2022/12/24 06:09:21;;;;;;;19.58;4.07;;;;;;;;;;5141425;27;20061;-56
2022/12/24 06:11:46;;;;;;;18.38;4.45;;;;;;;;;;5134803;27;20047;-57
2022/12/24 06:14:12;;;;;;;26.38;4.97;;;;;;;;;;5140700;27;20043;-56
2022/12/24 06:16:40;;;;;;;20.15;5.05;;;;;;;;;;5141493;27;20145;-57
2022/12/24 06:19:05;;;;;;;22.80;5.13;;;;;;;;;;5141364;27;20123;-57
2022/12/24 06:21:31;;;;;;;22.48;4.95;;;;;;;;;;5142480;27;20046;-57
2022/12/24 06:23:57;;;;;;;21.17;4.75;;;;;;;;;;5140756;27;20043;-56
2022/12/24 06:26:23;;;;;;;15.02;3.80;;;;;;;;;;5141076;27;20054;-57
2022/12/24 06:28:50;;;;;;;22.17;4.05;;;;;;;;;;5141715;27;20426;-56
2022/12/24 06:31:18;;;;;;;16.95;3.78;;;;;;;;;;5141225;27;20050;-57
2022/12/24 06:33:44;;;;;;;21.63;4.35;;;;;;;;;;5140505;27;20442;-56
2022/12/24 06:36:15;;;;;;;23.70;4.85;;;;;;;;;;5140072;27;20078;-57
2022/12/24 06:38:41;;;;;;;25.08;4.90;;;;;;;;;;5141543;27;20051;-57
2022/12/24 06:41:07;;;;;;;30.10;5.57;;;;;;;;;;5140160;27;20042;-57
2022/12/24 06:43:34;;;;;;;18.58;4.40;;;;;;;;;;5142094;27;20074;-57
2022/12/24 06:46:00;;;;;;;20.83;5.07;;;;;;;;;;5136823;27;20039;-57
2022/12/24 06:48:26;;;;;;;19.27;4.68;;;;;;;;;;5133986;27;20046;-56
2022/12/24 06:50:52;;;;;;;17.23;4.43;;;;;;;;;;5136283;27;20082;-57
2022/12/24 06:53:18;;;;;;;20.15;4.05;;;;;;;;;;5136119;27;20042;-57
2022/12/24 06:55:44;;;;;;;24.20;4.60;;;;;;;;;;5133921;27;20047;-57
2022/12/24 06:58:10;;;;;;;14.57;4.18;;;;;;;;;;5136369;27;20049;-57
2022/12/24 07:00:37;;;;;;;17.42;4.25;;;;;;;;;;5133366;27;20127;-57
2022/12/24 07:03:03;;;;;;;18.98;4.15;;;;;;;;;;5139685;27;20122;-57
2022/12/24 07:05:29;;;;;;;22.10;4.65;;;;;;;;;;5141863;27;20107;-57
2022/12/24 07:07:55;;;;;;;14.63;4.05;;;;;;;;;;5139416;27;20039;-57
2022/12/24 07:10:21;;;;;;;18.42;5.03;;;;;;;;;;5140471;27;20581;-57
2022/12/24 07:12:47;;;;;;;15.77;4.15;;;;;;;;;;5140777;27;20042;-57
2022/12/24 07:15:13;;;;;;;22.55;4.40;;;;;;;;;;5138598;27;20085;-56
2022/12/24 07:17:40;;;;;;;25.73;4.70;;;;;;;;;;5140570;27;20121;-57
2022/12/24 07:20:08;;;;;;;16.30;3.55;;;;;;;;;;5137526;27;20043;-56
2022/12/24 07:22:34;;;;;;;21.08;4.43;;;;;;;;;;5132842;27;20046;-57
2022/12/24 07:25:00;;;;;;;29.45;5.43;;;;;;;;;;5136142;27;20474;-57
2022/12/24 07:27:26;;;;;;;21.38;5.43;;;;;;;;;;5134029;27;20043;-56
2022/12/24 07:29:52;;;;;;;13.35;3.45;;;;;;;;;;5133388;27;20066;-56
2022/12/24 07:32:19;;;;;;;18.27;2.88;;;;;;;;;;5135448;27;20044;-56
2022/12/24 07:34:45;;;;;;;21.23;4.38;;;;;;;;;;5133912;27;20054;-56
2022/12/24 07:37:11;;;;;;;21.10;4.63;;;;;;;;;;5134900;27;20046;-57
2022/12/24 07:39:37;;;;;;;25.38;5.18;;;;;;;;;;5133341;27;20047;-56
2022/12/24 07:42:06;;;;;;;12.98;3.60;;;;;;;;;;5135718;27;20061;-57
2022/12/24 07:44:32;;;;;;;17.30;3.80;;;;;;;;;;5136836;27;20059;-56
2022/12/24 07:46:58;;;;;;;17.23;4.10;;;;;;;;;;5138624;27;20198;-57
2022/12/24 07:49:24;;;;;;;15.00;4.13;;;;;;;;;;5140459;27;20122;-58
2022/12/24 07:51:50;;;;;;;12.70;3.00;;;;;;;;;;5138865;27;20397;-57
2022/12/24 07:54:16;;;;;;;19.30;3.92;;;;;;;;;;5139321;27;20429;-56
2022/12/24 07:56:42;;;;;;;12.38;3.83;;;;;;;;;;5139722;27;20047;-57
2022/12/24 07:59:10;;;;;;;21.50;4.32;;;;;;;;;;5138286;27;20035;-57
2022/12/24 08:01:36;;;;;;;21.45;4.95;;;;;;;;;;5135419;27;20054;-56
2022/12/24 08:04:02;;;;;;;21.98;4.30;;;;;;;;;;5136567;27;20054;-57
2022/12/24 08:06:28;;;;;;;9.95;3.47;;;;;;;;;;5137176;27;20039;-56
2022/12/24 08:08:54;;;;;;;17.60;4.53;;;;;;;;;;5135949;27;20059;-57
2022/12/24 08:11:20;;;;;;;19.45;3.47;;;;;;;;;;5136074;27;20050;-57
2022/12/24 08:13:46;;;;;;;21.65;3.85;;;;;;;;;;5133116;27;20562;-57
2022/12/24 08:16:12;;;;;;;21.08;4.22;;;;;;;;;;5136332;27;20156;-56
2022/12/24 08:18:38;;;;;;;18.15;4.75;;;;;;;;;;5132134;27;20039;-57
2022/12/24 08:21:07;;;;;;;12.38;4.00;;;;;;;;;;5135165;27;20035;-57
2022/12/24 08:23:33;;;;;;;24.50;4.60;;;;;;;;;;5134394;27;20502;-57
2022/12/24 08:25:59;;;;;;;17.20;4.75;;;;;;;;;;5133543;27;20038;-57
2022/12/24 08:28:25;;;;;;;21.85;4.38;;;;;;;;;;5132621;27;20050;-57
2022/12/24 08:30:51;;;;;;;16.60;3.63;;;;;;;;;;5133874;27;20082;-56
2022/12/24 08:33:18;;;;;;;15.95;3.63;;;;;;;;;;5138279;27;20039;-57
2022/12/24 08:35:51;;;;;;;19.10;3.92;;;;;;;;;;5138851;27;20046;-57
2022/12/24 08:38:17;;;;;;;17.75;3.72;;;;;;;;;;5136554;27;20122;-57
2022/12/24 08:40:43;;;;;;;18.40;4.25;;;;;;;;;;5131922;27;20126;-57
2022/12/24 08:43:09;;;;;;;11.50;3.13;;;;;;;;;;5134811;27;20086;-57
2022/12/24 08:45:35;;;;;;;15.60;3.60;;;;;;;;;;5132245;27;20070;-56
2022/12/24 08:48:01;;;;;;;14.60;4.13;;;;;;;;;;5137768;27;20035;-57
2022/12/24 08:50:27;;;;;;;14.40;3.28;;;;;;;;;;5127958;27;20049;-57
2022/12/24 08:52:53;;;;;;;17.73;3.70;;;;;;;;;;5135277;27;20043;-57
2022/12/24 08:55:19;;;;;;;20.67;4.70;;;;;;;;;;5137232;27;20067;-57
2022/12/24 08:57:45;;;;;;;31.77;5.70;;;;;;;;;;5138785;27;20083;-57
2022/12/24 09:00:12;;;;;;;15.43;3.97;;;;;;;;;;5126889;27;20043;-56
2022/12/24 09:02:38;;;;;;;15.32;3.30;;;;;;;;;;5129470;27;20129;-57
2022/12/24 09:05:04;;;;;;;15.07;4.82;;;;;;;;;;5129752;27;20480;-57
2022/12/24 09:07:30;;;;;;;18.77;3.65;;;;;;;;;;5126852;27;20047;-57
2022/12/24 09:09:56;;;;;;;19.45;4.07;;;;;;;;;;5127761;27;20049;-57
2022/12/24 09:12:22;;;;;;;13.40;4.07;;;;;;;;;;5126359;27;20129;-57
2022/12/24 09:14:50;;;;;;;22.50;4.07;;;;;;;;;;5131217;27;20041;-57
2022/12/24 09:17:16;;;;;;;16.58;3.60;;;;;;;;;;5136960;27;20126;-58
2022/12/24 09:19:42;;;;;;;16.33;3.88;;;;;;;;;;5137092;27;20231;-57
2022/12/24 09:22:08;;;;;;;14.82;3.55;;;;;;;;;;5147299;27;20103;-57
2022/12/24 09:24:35;;;;;;;14.45;4.03;;;;;;;;;;5131983;27;20481;-57
2022/12/24 09:27:02;;;;;;;16.33;3.55;;;;;;;;;;5127181;28;20415;-57
2022/12/24 09:29:28;;;;;;;21.27;4.63;;;;;;;;;;5126106;28;20086;-57
2022/12/24 09:31:55;;;;;;;19.88;4.32;;;;;;;;;;5127164;28;20100;-57
2022/12/24 09:34:21;;;;;;;18.92;4.00;;;;;;;;;;5140205;27;20565;-57
2022/12/24 09:36:47;;;;;;;29.20;6.03;;;;;;;;;;5147239;27;20043;-58
2022/12/24 09:39:13;;;;;;;20.70;4.95;;;;;;;;;;5148045;27;20043;-57
2022/12/24 09:42:04;;;;;;;19.23;5.20;;;;;;;;;;5151694;27;20055;-58
2022/12/24 09:44:35;;;;;;;18.38;4.07;;;;;;;;;;5150550;27;20082;-57
2022/12/24 09:47:07;;;;;;;14.85;4.50;;;;;;;;;;5142537;27;20523;-57
2022/12/24 09:49:43;;;;;;;19.38;5.07;;;;;;;;;;5135001;27;20043;-58
2022/12/24 09:52:12;;;;;;;21.15;5.40;;;;;;;;;;5130878;27;20039;-58
2022/12/24 09:54:41;;;;;;;18.63;4.15;;;;;;;;;;5130780;27;20050;-57
2022/12/24 09:57:12;;;;;;;20.13;4.22;;;;;;;;;;5130125;27;20142;-57
2022/12/24 09:59:42;;;;;;;22.50;3.70;;;;;;;;;;5130873;27;20039;-57
2022/12/24 10:02:14;;;;;;;18.42;4.88;;;;;;;;;;5130489;27;20121;-58
2022/12/24 10:04:41;;;;;;;19.35;4.45;;;;;;;;;;5129705;27;20053;-57
2022/12/24 10:07:18;;;;;;;19.13;4.70;;;;;;;;;;5130748;27;20058;-57
2022/12/24 10:09:47;;;;;;;18.75;4.45;;;;;;;;;;5129748;27;20511;-58
2022/12/24 10:12:32;;;;;;;20.70;4.50;;;;;;;;;;5128996;27;20081;-57
2022/12/24 10:15:04;;;;;;;22.90;4.63;;;;;;;;;;5146196;27;20138;-57
2022/12/24 10:17:54;;;;;;;15.80;5.13;;;;;;;;;;5139465;27;20343;-54
2022/12/24 10:20:33;;;;;;;17.83;4.18;;;;;;;;;;5150633;27;20043;-58
2022/12/24 10:22:59;;;;;;;17.25;4.55;;;;;;;;;;5150232;27;20065;-59
2022/12/24 10:25:31;;;;;;;25.10;5.30;;;;;;;;;;5137955;27;20489;-58
2022/12/24 10:27:59;;;;;;;19.17;4.20;;;;;;;;;;5132007;27;20086;-57
2022/12/24 10:30:25;;;;;;;27.13;4.45;;;;;;;;;;5129727;27;20039;-57
2022/12/24 10:32:52;;;;;;;19.23;4.55;;;;;;;;;;5128860;27;20043;-56
2022/12/24 10:35:34;;;;;;;15.65;4.85;;;;;;;;;;5129619;27;20046;-61
2022/12/24 10:38:00;;;;;;;24.50;5.78;;;;;;;;;;5129964;27;20588;-57
2022/12/24 10:40:35;;;;;;;21.98;5.22;;;;;;;;;;5128903;27;20074;-56
2022/12/24 10:43:01;;;;;;;20.25;5.07;;;;;;;;;;5129529;27;20047;-57
2022/12/24 10:45:34;;;;;;;22.48;5.53;;;;;;;;;;5129287;27;20088;-57
2022/12/24 10:48:03;;;;;;;19.42;5.00;;;;;;;;;;5129037;27;20076;-57
2022/12/24 10:50:34;;;;;;;29.15;5.57;;;;;;;;;;5128950;27;20162;-57
2022/12/24 10:53:18;;;;;;;25.20;5.55;;;;;;;;;;5128247;27;20050;-57
2022/12/24 10:55:46;;;;;;;19.17;4.85;;;;;;;;;;5129338;27;20082;-56
2022/12/24 10:58:15;;;;;;;18.85;5.25;;;;;;;;;;5135083;27;20142;-57
2022/12/24 11:00:41;;;;;;;15.65;3.65;;;;;;;;;;5147058;27;20060;-56
2022/12/24 11:03:26;;;;;;;20.65;4.85;;;;;;;;;;5129484;27;20595;-57
2022/12/24 11:05:59;;;;;;;19.75;4.75;;;;;;;;;;5129093;27;20078;-57
2022/12/24 11:08:25;;;;;;;20.08;4.57;;;;;;;;;;5128042;27;20054;-57
2022/12/24 11:10:58;;;;;;;20.25;5.22;;;;;;;;;;5129018;27;20055;-57
2022/12/24 11:13:27;;;;;;;17.77;3.53;;;;;;;;;;5129595;27;20125;-57
2022/12/24 11:16:05;;;;;;;21.50;4.70;;;;;;;;;;5125888;27;20047;-57
2022/12/24 11:18:32;;;;;;;13.30;3.88;;;;;;;;;;5126730;27;20501;-57
2022/12/24 11:20:59;;;;;;;17.42;4.65;;;;;;;;;;5125964;27;20600;-57
2022/12/24 11:23:26;;;;;;;13.55;3.47;;;;;;;;;;5127236;27;20505;-57
2022/12/24 11:25:52;;;;;;;16.73;3.65;;;;;;;;;;5127756;27;20066;-57
2022/12/24 11:28:23;;;;;;;21.63;4.72;;;;;;;;;;5127140;27;20043;-57
2022/12/24 11:30:57;;;;;;;15.07;3.92;;;;;;;;;;5128007;27;20043;-56
2022/12/24 11:33:23;;;;;;;13.07;3.22;;;;;;;;;;5127521;27;20039;-57
2022/12/24 11:35:51;;;;;;;14.68;3.72;;;;;;;;;;5127107;27;20520;-57
2022/12/24 11:38:19;;;;;;;15.57;4.05;;;;;;;;;;5127586;27;20104;-57
2022/12/24 11:40:47;;;;;;;11.90;3.08;;;;;;;;;;5127843;27;20313;-56
2022/12/24 11:43:20;;;;;;;8.05;2.67;;;;;;;;;;5126468;27;20051;-57
2022/12/24 11:45:50;;;;;;;18.92;3.83;;;;;;;;;;5127924;27;20157;-57
2022/12/24 11:48:34;;;;;;;19.42;3.85;;;;;;;;;;5127500;27;20074;-57
2022/12/24 11:51:01;;;;;;;11.93;3.28;;;;;;;;;;5126923;27;20035;-57
2022/12/24 11:53:46;;;;;;;20.30;3.60;;;;;;;;;;5127055;27;20551;-57
2022/12/24 11:56:14;;;;;;;17.27;5.10;;;;;;;;;;5126394;27;20437;-56
2022/12/24 11:58:51;;;;;;;9.65;2.58;;;;;;;;;;5127574;27;20035;-56
2022/12/24 12:01:33;;;;;;;19.15;4.38;;;;;;;;;;5127326;27;20079;-57
2022/12/24 12:03:59;;;;;;;19.40;3.85;;;;;;;;;;5126360;27;20047;-57
2022/12/24 12:06:41;;;;;;;15.13;3.92;;;;;;;;;;5126776;27;20054;-57
2022/12/24 12:09:17;;;;;;;18.35;3.72;;;;;;;;;;5127405;27;20055;-57
2022/12/24 12:11:44;;;;;;;15.27;3.80;;;;;;;;;;5126599;27;20059;-56
2022/12/24 12:14:16;;;;;;;14.85;3.45;;;;;;;;;;5126735;27;20493;-57
2022/12/24 12:16:59;;;;;;;15.57;3.33;;;;;;;;;;5126960;27;20051;-57
2022/12/24 12:19:26;;;;;;;10.88;2.50;;;;;;;;;;5126606;27;20045;-56
2022/12/24 12:21:52;;;;;;;11.35;3.35;;;;;;;;;;5127025;27;20035;-57
2022/12/24 12:24:32;;;;;;;10.02;3.10;;;;;;;;;;5126174;27;20095;-57
2022/12/24 12:27:10;;;;;;;14.27;2.90;;;;;;;;;;5126850;27;20047;-57
2022/12/24 12:29:41;;;;;;;9.90;2.70;;;;;;;;;;5127106;27;20047;-57
2022/12/24 12:32:11;;;;;;;15.40;3.28;;;;;;;;;;5126371;27;20155;-58
2022/12/24 12:34:40;;;;;;;14.02;3.92;;;;;;;;;;5126890;27;20514;-57
2022/12/24 12:37:10;;;;;;;15.93;4.30;;;;;;;;;;5127108;27;20047;-57
2022/12/24 12:39:36;;;;;;;20.08;4.07;;;;;;;;;;5125244;27;20053;-57
2022/12/24 12:42:22;;;;;;;16.42;4.03;;;;;;;;;;5125847;27;20051;-57
2022/12/24 12:45:03;;;;;;;16.75;3.70;;;;;;;;;;5125882;27;20082;-57
2022/12/24 12:47:49;;;;;;;23.70;4.35;;;;;;;;;;5125350;28;20425;-57
2022/12/24 12:50:15;;;;;;;15.57;3.47;;;;;;;;;;5125718;28;20050;-57
2022/12/24 12:52:59;;;;;;;12.23;3.42;;;;;;;;;;5125195;28;20529;-57
2022/12/24 12:55:25;;;;;;;15.30;3.05;;;;;;;;;;5125934;28;20071;-57
2022/12/24 12:57:53;;;;;;;12.80;4.05;;;;;;;;;;5125982;28;20101;-57
2022/12/24 13:00:20;;;;;;;10.27;3.28;;;;;;;;;;5125365;28;20131;-57
2022/12/24 13:02:52;;;;;;;13.85;3.22;;;;;;;;;;5126388;28;20510;-57
2022/12/24 13:05:37;;;;;;;9.52;2.92;;;;;;;;;;5126491;28;20089;-57
2022/12/24 13:08:12;;;;;;;10.50;2.55;;;;;;;;;;5125872;28;20055;-57
2022/12/24 13:10:44;;;;;;;8.23;2.55;;;;;;;;;;5126541;28;20413;-57
2022/12/24 13:13:16;;;;;;;16.38;4.07;;;;;;;;;;5126267;28;20051;-57
2022/12/24 13:16:01;;;;;;;10.07;2.15;;;;;;;;;;5128628;27;20547;-56
2022/12/24 13:18:40;;;;;;;12.77;3.53;;;;;;;;;;5130230;27;20043;-56
2022/12/24 13:21:14;;;;;;;13.30;2.90;;;;;;;;;;5129966;27;20509;-56
2022/12/24 13:23:40;;;;;;;9.10;2.88;;;;;;;;;;5130301;27;20045;-56
2022/12/24 13:26:11;;;;;;;10.73;2.75;;;;;;;;;;5130570;27;20111;-56
2022/12/24 13:28:37;;;;;;;18.38;3.42;;;;;;;;;;5129872;27;20031;-56
2022/12/24 13:31:18;;;;;;;15.75;3.42;;;;;;;;;;5130178;27;20051;-56
2022/12/24 13:33:44;;;;;;;11.95;3.03;;;;;;;;;;5129986;27;20569;-57
2022/12/24 13:36:18;;;;;;;6.97;2.45;;;;;;;;;;5129259;27;20130;-56
2022/12/24 13:38:48;;;;;;;8.35;2.33;;;;;;;;;;5129943;27;20047;-57
2022/12/24 13:44:12;;;;;;;6.32;2.30;;;;;;;;;;5130121;27;20501;-56
2022/12/24 13:46:56;;;;;;;7.50;1.80;;;;;;;;;;5111721;27;20047;-57
2022/12/24 13:49:33;;;;;;;10.02;3.05;;;;;;;;;;5129396;27;20054;-57
2022/12/24 13:52:06;;;;;;;11.55;3.15;;;;;;;;;;5130363;27;20521;-56
2022/12/24 13:54:32;;;;;;;7.75;2.20;;;;;;;;;;5129809;27;20043;-58
2022/12/24 13:56:59;;;;;;;6.57;2.30;;;;;;;;;;5129032;27;20050;-57
2022/12/24 13:59:39;;;;;;;6.68;2.28;;;;;;;;;;5129347;27;20043;-57
2022/12/24 14:02:05;;;;;;;15.27;3.15;;;;;;;;;;5129682;27;20062;-57
2022/12/24 14:04:34;;;;;;;9.35;2.72;;;;;;;;;;5128821;27;20047;-57
2022/12/24 14:07:02;;;;;;;5.97;1.88;;;;;;;;;;5129385;27;20921;-57
2022/12/24 14:09:28;;;;;;;9.20;2.22;;;;;;;;;;5129291;27;20055;-57
2022/12/24 14:12:01;;;;;;;10.25;2.60;;;;;;;;;;5128537;27;20035;-57
2022/12/24 14:14:35;;;;;;;6.22;2.72;;;;;;;;;;5129080;27;20061;-56
2022/12/24 14:17:02;;;;;;;9.95;3.30;;;;;;;;;;5128523;27;20133;-56
2022/12/24 14:19:32;;;;;;;11.13;2.40;;;;;;;;;;5129083;27;20047;-57
2022/12/24 14:22:03;;;;;;;9.18;2.83;;;;;;;;;;5128990;27;20506;-56
2022/12/24 14:24:37;;;;;;;12.68;2.80;;;;;;;;;;5128140;27;20126;-57
2022/12/24 14:27:30;;;;;;;9.85;2.63;;;;;;;;;;5127707;27;20533;-58
2022/12/24 14:30:00;;;;;;;12.80;2.70;;;;;;;;;;5128975;27;20383;-57
2022/12/24 14:32:37;;;;;;;10.27;2.28;;;;;;;;;;5128463;27;20039;-57
2022/12/24 14:35:15;;;;;;;10.55;2.78;;;;;;;;;;5128964;27;20399;-58
2022/12/24 14:37:42;;;;;;;10.05;2.58;;;;;;;;;;5128846;27;20410;-58
2022/12/24 14:40:08;;;;;;;13.23;3.28;;;;;;;;;;5129093;27;20376;-58
2022/12/24 14:42:37;;;;;;;9.90;2.78;;;;;;;;;;5128843;27;20047;-57
2022/12/24 14:45:22;;;;;;;10.70;3.10;;;;;;;;;;5128009;27;20043;-57
2022/12/24 14:48:16;;;;;;;17.13;2.72;;;;;;;;;;5129165;27;20125;-57
2022/12/24 14:50:42;;;;;;;16.58;3.35;;;;;;;;;;5128795;27;20055;-57
2022/12/24 14:53:20;;;;;;;16.08;3.42;;;;;;;;;;5128038;27;20047;-57
2022/12/24 14:55:47;;;;;;;11.65;2.95;;;;;;;;;;5128746;27;20035;-57
2022/12/24 14:58:32;;;;;;;13.63;3.67;;;;;;;;;;5128606;27;20035;-57
2022/12/24 15:01:02;;;;;;;11.38;2.58;;;;;;;;;;5127690;27;20476;-57
2022/12/24 15:03:30;;;;;;;9.80;3.05;;;;;;;;;;5128093;27;20500;-57